createdAt,value
2022-11-14T00:01:22.045Z,2.03
2022-11-14T00:03:55.284Z,2.70
2022-11-14T00:06:22.267Z,2.17
2022-11-14T00:08:49.529Z,2.78
2022-11-14T00:11:17.009Z,2.05
2022-11-14T00:13:44.288Z,2.33
2022-11-14T00:16:11.545Z,2.25
2022-11-14T00:18:39.063Z,1.80
2022-11-14T00:21:06.428Z,3.05
2022-11-14T00:23:37.206Z,1.08
2022-11-14T00:26:04.766Z,2.97
2022-11-14T00:28:35.347Z,1.77
2022-11-14T00:31:02.565Z,1.50
2022-11-14T00:33:29.689Z,2.00
2022-11-14T00:37:08.616Z,3.30
2022-11-14T00:39:49.623Z,1.58
2022-11-14T00:42:28.965Z,2.00
2022-11-14T00:44:57.320Z,1.95
2022-11-14T00:47:28.169Z,2.47
2022-11-14T00:50:28.011Z,2.25
2022-11-14T00:52:55.468Z,1.98
2022-11-14T00:55:33.108Z,2.75
2022-11-14T01:01:36.909Z,1.88
2022-11-14T01:04:11.788Z,2.00
2022-11-14T01:07:01.016Z,1.33
2022-11-14T01:09:42.785Z,1.63
2022-11-14T01:12:15.406Z,1.85
2022-11-14T01:14:42.590Z,1.98
2022-11-14T01:17:10.089Z,1.92
2022-11-14T01:19:37.426Z,2.40
2022-11-14T01:22:06.667Z,1.38
2022-11-14T01:24:34.942Z,1.77
2022-11-14T01:27:03.142Z,2.50
2022-11-14T01:29:33.452Z,2.45
2022-11-14T01:32:01.354Z,2.15
2022-11-14T01:34:29.908Z,0.82
2022-11-14T01:36:57.397Z,1.52
2022-11-14T01:39:26.560Z,2.05
2022-11-14T01:41:54.153Z,1.40
2022-11-14T01:44:50.517Z,1.40
2022-11-14T01:47:39.800Z,1.27
2022-11-14T01:50:07.580Z,1.40
2022-11-14T01:52:38.854Z,2.72
2022-11-14T01:55:14.230Z,1.23
2022-11-14T01:57:48.833Z,1.13
2022-11-14T02:00:19.585Z,1.75
2022-11-14T02:02:47.180Z,1.20
2022-11-14T02:05:17.628Z,1.33
2022-11-14T02:07:45.489Z,2.03
2022-11-14T02:10:20.170Z,1.95
2022-11-14T02:12:48.009Z,1.85
2022-11-14T02:15:15.662Z,2.65
2022-11-14T02:17:44.561Z,1.60
2022-11-14T02:20:12.347Z,1.23
2022-11-14T02:22:41.492Z,1.77
2022-11-14T02:25:10.969Z,0.90
2022-11-14T02:27:40.039Z,1.58
2022-11-14T02:30:12.393Z,1.90
2022-11-14T02:33:08.835Z,1.20
2022-11-14T02:35:26.927Z,1.35
2022-11-14T02:37:54.088Z,1.48
2022-11-14T02:40:21.631Z,1.83
2022-11-14T02:42:48.936Z,0.65
2022-11-14T02:45:16.245Z,0.80
2022-11-14T02:47:43.405Z,1.30
2022-11-14T02:50:11.095Z,1.20
2022-11-14T02:52:38.110Z,1.38
2022-11-14T02:55:06.732Z,2.23
2022-11-14T02:57:33.960Z,1.55
2022-11-14T03:00:01.045Z,1.75
2022-11-14T03:02:28.485Z,1.87
2022-11-14T03:04:55.775Z,1.17
2022-11-14T03:07:23.088Z,0.43
2022-11-14T03:09:50.369Z,1.67
2022-11-14T03:12:18.848Z,2.90
2022-11-14T03:14:47.412Z,1.27
2022-11-14T03:17:14.787Z,2.08
2022-11-14T03:19:42.088Z,1.30
2022-11-14T03:22:09.557Z,1.35
2022-11-14T03:24:37.057Z,1.60
2022-11-14T03:27:04.322Z,0.68
2022-11-14T03:29:34.539Z,1.88
2022-11-14T03:32:01.822Z,1.10
2022-11-14T03:34:29.277Z,1.35
2022-11-14T03:36:56.796Z,1.35
2022-11-14T03:39:24.087Z,2.13
2022-11-14T03:41:51.829Z,1.30
2022-11-14T03:44:22.229Z,1.77
2022-11-14T03:46:49.502Z,1.17
2022-11-14T03:49:26.298Z,1.60
2022-11-14T03:51:54.175Z,1.80
2022-11-14T03:54:24.769Z,1.50
2022-11-14T03:56:52.252Z,1.73
2022-11-14T03:59:19.467Z,2.60
2022-11-14T04:01:56.042Z,1.02
2022-11-14T04:04:26.143Z,2.20
2022-11-14T04:06:53.667Z,1.52
2022-11-14T04:09:21.072Z,1.63
2022-11-14T04:11:48.436Z,1.63
2022-11-14T04:14:27.261Z,1.10
2022-11-14T04:16:54.755Z,1.38
2022-11-14T04:19:25.623Z,2.03
2022-11-14T04:21:53.300Z,2.10
2022-11-14T04:24:21.426Z,1.75
2022-11-14T04:35:32.717Z,1.63
2022-11-14T04:38:03.032Z,1.10
2022-11-14T04:40:45.349Z,1.55
2022-11-14T04:43:31.342Z,2.88
2022-11-14T04:46:09.668Z,1.27
2022-11-14T04:48:50.541Z,1.55
2022-11-14T04:51:18.343Z,2.60
2022-11-14T04:53:45.430Z,1.52
2022-11-14T04:56:33.355Z,1.15
2022-11-14T04:59:06.447Z,2.67
2022-11-14T05:01:34.135Z,2.13
2022-11-14T05:04:01.286Z,2.15
2022-11-14T05:06:28.815Z,1.30
2022-11-14T05:08:55.747Z,2.30
2022-11-14T05:11:29.224Z,3.63
2022-11-14T05:13:56.477Z,2.30
2022-11-14T05:16:23.706Z,2.30
2022-11-14T05:18:54.263Z,2.38
2022-11-14T05:21:21.490Z,2.10
2022-11-14T05:23:48.784Z,3.55
2022-11-14T05:26:18.726Z,3.45
2022-11-14T05:28:46.051Z,3.13
2022-11-14T05:31:15.729Z,2.38
2022-11-14T05:33:42.734Z,4.43
2022-11-14T05:36:14.977Z,2.10
2022-11-14T05:38:43.056Z,2.88
2022-11-14T05:46:07.363Z,1.75
2022-11-14T05:48:34.374Z,2.85
2022-11-14T05:51:03.936Z,2.97
2022-11-14T05:53:33.635Z,3.20
2022-11-14T05:56:02.805Z,2.65
2022-11-14T05:58:31.543Z,3.00
2022-11-14T06:01:06.172Z,3.58
2022-11-14T06:03:39.551Z,3.60
2022-11-14T06:06:09.516Z,3.83
2022-11-14T06:08:37.367Z,3.55
2022-11-14T06:11:07.175Z,2.78
2022-11-14T06:13:36.448Z,2.38
2022-11-14T06:16:09.636Z,4.30
2022-11-14T06:18:37.474Z,2.88
2022-11-14T06:21:11.654Z,1.90
2022-11-14T06:23:39.031Z,2.30
2022-11-14T06:26:08.209Z,2.00
2022-11-14T06:28:35.341Z,1.58
2022-11-14T06:31:04.468Z,1.40
2022-11-14T06:33:35.770Z,1.58
2022-11-14T06:36:05.814Z,2.50
2022-11-14T06:38:34.889Z,2.67
2022-11-14T06:41:07.274Z,1.83
2022-11-14T06:43:35.736Z,2.58
2022-11-14T06:46:03.758Z,1.75
2022-11-14T06:53:28.403Z,1.02
2022-11-14T06:55:56.675Z,2.25
2022-11-14T06:58:27.307Z,1.92
2022-11-14T07:00:54.695Z,2.05
2022-11-14T07:03:22.840Z,2.72
2022-11-14T07:05:50.166Z,3.33
2022-11-14T07:08:20.813Z,4.38
2022-11-14T07:10:48.812Z,6.13
2022-11-14T07:13:15.836Z,8.48
2022-11-14T07:15:52.999Z,9.73
2022-11-14T07:18:21.173Z,12.75
2022-11-14T07:20:48.536Z,12.75
2022-11-14T07:23:21.430Z,14.15
2022-11-14T07:25:49.804Z,13.05
2022-11-14T07:28:17.153Z,10.65
2022-11-14T07:30:44.509Z,10.88
2022-11-14T07:33:11.596Z,10.55
2022-11-14T07:35:41.841Z,9.10
2022-11-14T07:38:08.963Z,10.52
2022-11-14T07:40:36.036Z,10.40
2022-11-14T07:43:04.020Z,8.50
2022-11-14T07:48:00.126Z,4.53
2022-11-14T07:50:32.030Z,6.75
2022-11-14T07:52:59.162Z,6.05
2022-11-14T07:55:26.589Z,8.10
2022-11-14T07:57:55.245Z,7.43
2022-11-14T08:00:22.551Z,9.07
2022-11-14T08:02:49.670Z,8.43
2022-11-14T08:05:17.612Z,12.05
2022-11-14T08:10:14.539Z,11.82
2022-11-14T08:12:41.492Z,10.98
2022-11-14T08:15:10.750Z,12.82
2022-11-14T08:17:38.032Z,9.10
2022-11-14T08:20:06.595Z,11.07
2022-11-14T08:22:34.196Z,5.47
2022-11-14T08:25:01.309Z,5.55
2022-11-14T08:27:28.387Z,4.80
2022-11-14T08:29:55.676Z,6.68
2022-11-14T08:32:23.856Z,6.82
2022-11-14T08:34:50.851Z,5.70
2022-11-14T08:37:18.203Z,6.78
2022-11-14T08:39:45.363Z,4.53
2022-11-14T08:42:12.378Z,5.68
2022-11-14T08:44:39.443Z,5.30
2022-11-14T08:47:06.361Z,4.10
2022-11-14T08:49:33.723Z,4.20
2022-11-14T08:52:00.891Z,3.58
2022-11-14T08:54:28.198Z,4.03
2022-11-14T08:56:55.479Z,3.30
2022-11-14T08:59:22.676Z,2.22
2022-11-14T09:01:50.072Z,4.60
2022-11-14T09:04:17.361Z,3.17
2022-11-14T09:06:46.562Z,3.65
2022-11-14T09:09:14.211Z,2.13
2022-11-14T09:11:44.069Z,3.00
2022-11-14T09:14:11.166Z,2.05
2022-11-14T09:16:38.217Z,1.40
2022-11-14T09:19:05.829Z,2.07
2022-11-14T09:21:32.913Z,1.95
2022-11-14T09:24:01.829Z,2.15
2022-11-14T09:26:29.259Z,2.00
2022-11-14T09:29:02.249Z,1.80
2022-11-14T09:31:30.501Z,1.58
2022-11-14T09:34:00.779Z,1.60
2022-11-14T09:36:28.998Z,2.15
2022-11-14T09:38:55.974Z,2.25
2022-11-14T09:41:39.561Z,1.35
2022-11-14T09:44:20.319Z,2.00
2022-11-14T09:46:54.856Z,3.47
2022-11-14T09:49:33.258Z,4.05
2022-11-14T09:52:24.377Z,2.70
2022-11-14T09:54:59.590Z,2.97
2022-11-14T09:57:27.389Z,3.05
2022-11-14T09:59:56.386Z,2.58
2022-11-14T10:02:41.720Z,3.10
2022-11-14T10:05:21.057Z,2.78
2022-11-14T10:08:02.977Z,1.98
2022-11-14T10:10:39.227Z,2.97
2022-11-14T10:13:33.940Z,2.58
2022-11-14T10:16:20.243Z,3.25
2022-11-14T10:19:30.727Z,3.03
2022-11-14T10:22:18.254Z,3.80
2022-11-14T10:25:03.540Z,3.33
2022-11-14T10:28:06.085Z,2.97
2022-11-14T10:30:41.206Z,3.00
2022-11-14T10:33:37.079Z,2.63
2022-11-14T10:36:41.140Z,1.85
2022-11-14T10:39:44.947Z,3.38
2022-11-14T10:42:16.948Z,2.28
2022-11-14T10:45:05.298Z,3.15
2022-11-14T10:47:40.637Z,3.38
2022-11-14T10:50:46.328Z,2.88
2022-11-14T10:53:51.765Z,3.13
2022-11-14T10:56:18.763Z,3.70
2022-11-14T10:58:48.974Z,2.85
2022-11-14T11:01:38.391Z,2.67
2022-11-14T11:04:22.074Z,3.25
2022-11-14T11:09:56.206Z,1.80
2022-11-14T11:12:46.406Z,2.20
2022-11-14T11:15:21.529Z,2.60
2022-11-14T11:18:03.250Z,1.70
2022-11-14T11:20:36.457Z,1.83
2022-11-14T11:23:07.230Z,2.47
2022-11-14T11:25:35.289Z,2.20
2022-11-14T11:28:17.748Z,1.90
2022-11-14T11:31:02.885Z,2.20
2022-11-14T11:33:34.383Z,1.98
2022-11-14T11:36:07.731Z,2.28
2022-11-14T11:38:35.223Z,2.10
2022-11-14T11:42:11.010Z,2.22
2022-11-14T11:44:38.111Z,2.22
2022-11-14T11:47:12.612Z,1.98
2022-11-14T11:49:53.765Z,2.25
2022-11-14T11:52:24.361Z,2.05
2022-11-14T11:55:10.389Z,2.50
2022-11-14T11:57:44.147Z,2.30
2022-11-14T12:00:21.732Z,2.60
2022-11-14T12:02:51.867Z,1.83
2022-11-14T12:05:51.375Z,1.88
2022-11-14T12:08:27.023Z,2.05
2022-11-14T12:10:56.308Z,2.25
2022-11-14T12:14:02.550Z,2.15
2022-11-14T12:16:58.813Z,2.17
2022-11-14T12:19:45.664Z,3.03
2022-11-14T12:22:47.286Z,2.88
2022-11-14T12:25:41.460Z,1.88
2022-11-14T12:28:14.354Z,2.55
2022-11-14T12:30:46.645Z,2.08
2022-11-14T12:33:24.366Z,1.98
2022-11-14T12:36:01.341Z,2.28
2022-11-14T12:38:42.559Z,2.67
2022-11-14T12:41:10.699Z,2.25
2022-11-14T12:43:40.101Z,1.75
2022-11-14T12:46:13.354Z,2.20
2022-11-14T12:48:45.043Z,2.65
2022-11-14T12:51:27.820Z,2.33
2022-11-14T12:53:56.681Z,2.97
2022-11-14T12:56:29.786Z,2.67
2022-11-14T12:59:18.494Z,2.95
2022-11-14T13:01:54.976Z,2.95
2022-11-14T13:04:43.352Z,2.83
2022-11-14T13:07:16.200Z,3.35
2022-11-14T13:10:12.161Z,2.30
2022-11-14T13:13:00.347Z,2.67
2022-11-14T13:15:50.936Z,3.10
2022-11-14T13:18:41.351Z,2.13
2022-11-14T13:21:47.350Z,3.53
2022-11-14T13:24:19.380Z,3.20
2022-11-14T13:26:52.319Z,2.58
2022-11-14T13:29:45.537Z,2.65
2022-11-14T13:32:13.170Z,3.03
2022-11-14T13:34:52.673Z,3.15
2022-11-14T13:37:49.283Z,2.88
2022-11-14T13:40:38.602Z,3.08
2022-11-14T13:43:38.082Z,2.58
2022-11-14T13:46:31.588Z,3.50
2022-11-14T13:49:22.114Z,2.03
2022-11-14T13:51:53.826Z,2.50
2022-11-14T13:54:21.426Z,4.25
2022-11-14T13:57:16.446Z,3.20
2022-11-14T13:59:52.734Z,2.17
2022-11-14T14:02:33.958Z,3.83
2022-11-14T14:05:48.516Z,3.75
2022-11-14T14:08:58.220Z,2.70
2022-11-14T14:11:28.243Z,3.35
2022-11-14T14:14:07.444Z,4.57
2022-11-14T14:16:34.682Z,4.07
2022-11-14T14:19:29.949Z,2.70
2022-11-14T14:22:19.267Z,3.72
2022-11-14T14:25:06.318Z,4.57
2022-11-14T14:27:58.193Z,2.65
2022-11-14T14:30:25.537Z,3.92
2022-11-14T14:33:13.035Z,2.50
2022-11-14T14:35:50.854Z,3.72
2022-11-14T14:43:37.307Z,4.93
2022-11-14T14:46:04.443Z,3.80
2022-11-14T14:48:35.537Z,3.33
2022-11-14T14:51:07.584Z,4.75
2022-11-14T14:53:36.978Z,5.05
2022-11-14T14:56:17.356Z,4.47
2022-11-14T14:58:44.700Z,4.65
2022-11-14T15:01:17.764Z,4.03
2022-11-14T15:04:03.080Z,3.25
2022-11-14T15:06:38.716Z,4.38
2022-11-14T15:09:17.551Z,3.65
2022-11-14T15:11:47.866Z,3.30
2022-11-14T15:14:22.568Z,2.60
2022-11-14T15:16:51.255Z,3.38
2022-11-14T15:19:25.169Z,3.38
2022-11-14T15:22:21.409Z,3.83
2022-11-14T15:25:27.724Z,3.42
2022-11-14T15:27:55.730Z,3.25
2022-11-14T15:30:28.276Z,4.32
2022-11-14T15:32:58.034Z,4.53
2022-11-14T15:35:34.369Z,3.03
2022-11-14T15:38:43.143Z,5.47
2022-11-14T15:41:18.040Z,3.30
2022-11-14T15:43:45.133Z,4.60
2022-11-14T15:46:30.833Z,3.20
2022-11-14T15:48:59.945Z,3.78
2022-11-14T15:52:02.263Z,4.80
2022-11-14T15:54:32.434Z,4.40
2022-11-14T15:57:19.717Z,4.40
2022-11-14T15:59:47.292Z,4.75
2022-11-14T16:02:24.298Z,4.32
2022-11-14T16:04:53.835Z,4.15
2022-11-14T16:07:21.459Z,4.60
2022-11-14T16:09:49.212Z,5.75
2022-11-14T16:12:16.591Z,4.97
2022-11-14T16:14:44.108Z,4.85
2022-11-14T16:17:16.488Z,6.55
2022-11-14T16:19:44.371Z,5.03
2022-11-14T16:22:18.306Z,3.17
2022-11-14T16:24:45.536Z,4.75
2022-11-14T16:28:12.509Z,3.22
2022-11-14T16:31:17.425Z,5.25
2022-11-14T16:33:51.169Z,4.30
2022-11-14T16:36:25.723Z,4.65
2022-11-14T16:39:04.073Z,2.88
2022-11-14T16:41:49.690Z,4.93
2022-11-14T16:44:42.007Z,3.95
2022-11-14T16:50:09.997Z,5.63
2022-11-14T16:52:41.247Z,4.03
2022-11-14T16:55:16.660Z,3.95
2022-11-14T16:57:48.517Z,4.88
2022-11-14T17:00:16.855Z,4.85
2022-11-14T17:02:44.895Z,4.78
2022-11-14T17:07:46.001Z,4.78
2022-11-14T17:10:17.528Z,6.50
2022-11-14T17:12:45.865Z,14.27
2022-11-14T17:15:17.393Z,6.63
2022-11-14T17:17:51.230Z,7.07
2022-11-14T17:20:19.155Z,5.70
2022-11-14T17:25:14.450Z,5.45
2022-11-14T17:27:45.006Z,5.90
2022-11-14T17:30:13.636Z,6.50
2022-11-14T17:32:41.738Z,5.25
2022-11-14T17:35:13.439Z,5.32
2022-11-14T17:37:45.848Z,4.95
2022-11-14T17:40:18.906Z,6.10
2022-11-14T17:43:47.148Z,4.72
2022-11-14T17:46:03.683Z,4.47
2022-11-14T17:51:31.092Z,4.13
2022-11-14T17:54:02.873Z,6.30
2022-11-14T17:56:45.746Z,4.38
2022-11-14T17:59:43.188Z,5.43
2022-11-14T18:05:31.667Z,3.85
2022-11-14T18:08:17.471Z,4.72
2022-11-14T18:11:09.538Z,4.20
2022-11-14T18:13:50.528Z,3.22
2022-11-14T18:19:27.447Z,4.53
2022-11-14T18:22:04.237Z,5.15
2022-11-14T18:27:45.635Z,5.38
2022-11-14T18:30:39.946Z,4.47
2022-11-14T18:33:05.496Z,4.30
2022-11-14T18:35:47.305Z,4.25
2022-11-14T18:38:21.130Z,4.80
2022-11-14T18:41:01.548Z,3.90
2022-11-14T18:43:45.535Z,5.88
2022-11-14T18:46:27.460Z,4.07
2022-11-14T18:49:11.524Z,5.05
2022-11-14T18:51:49.671Z,4.30
2022-11-14T18:54:29.343Z,4.72
2022-11-14T18:57:09.735Z,3.90
2022-11-14T19:08:23.732Z,4.45
2022-11-14T19:11:37.369Z,3.03
2022-11-14T19:17:20.152Z,3.80
2022-11-14T19:20:14.419Z,3.13
2022-11-14T19:22:47.997Z,3.08
2022-11-14T19:25:27.419Z,3.28
2022-11-14T19:28:09.459Z,3.80
2022-11-14T19:30:56.306Z,2.70
2022-11-14T19:36:59.503Z,3.73
2022-11-14T19:39:39.974Z,3.33
2022-11-14T19:42:19.186Z,2.45
2022-11-14T19:44:51.169Z,3.15
2022-11-14T19:47:27.221Z,5.22
2022-11-14T19:50:07.022Z,4.45
2022-11-14T19:52:36.820Z,3.60
2022-11-14T19:55:15.349Z,2.85
2022-11-14T19:57:56.817Z,2.88
2022-11-14T20:00:35.640Z,3.05
2022-11-14T20:03:14.681Z,3.85
2022-11-14T20:05:53.288Z,2.70
2022-11-14T20:08:28.964Z,3.95
2022-11-14T20:11:29.263Z,4.13
2022-11-14T20:14:10.586Z,2.97
2022-11-14T20:16:55.561Z,2.60
2022-11-14T20:19:52.564Z,2.10
2022-11-14T20:22:20.520Z,2.33
2022-11-14T20:24:48.277Z,1.60
2022-11-14T20:27:15.979Z,2.10
2022-11-14T20:29:44.422Z,1.73
2022-11-14T20:32:15.979Z,1.00
2022-11-14T20:34:49.656Z,2.70
2022-11-14T20:37:29.381Z,1.65
2022-11-14T20:40:01.518Z,2.00
2022-11-14T20:42:29.199Z,2.22
2022-11-14T20:44:56.440Z,3.45
2022-11-14T20:47:27.122Z,2.85
2022-11-14T20:49:54.759Z,2.10
2022-11-14T20:52:22.217Z,3.08
2022-11-14T20:54:56.476Z,2.30
2022-11-14T20:57:26.844Z,1.58
2022-11-14T21:00:00.037Z,2.78
2022-11-14T21:02:48.822Z,2.00
2022-11-14T21:05:45.322Z,1.50
2022-11-14T21:08:15.784Z,1.02
2022-11-14T21:11:02.970Z,0.57
2022-11-14T21:16:55.802Z,1.33
2022-11-14T21:19:51.432Z,1.27
2022-11-14T21:22:29.019Z,1.27
2022-11-14T21:25:24.600Z,1.52
2022-11-14T21:27:56.726Z,1.90
2022-11-14T21:30:46.571Z,1.75
2022-11-14T21:33:17.413Z,2.28
2022-11-14T21:35:50.205Z,2.67
2022-11-14T21:38:19.055Z,2.08
2022-11-14T21:40:53.368Z,2.10
2022-11-14T21:44:08.230Z,2.45
2022-11-14T21:46:56.593Z,1.85
2022-11-14T21:52:21.156Z,1.88
2022-11-14T21:55:03.523Z,1.83
2022-11-14T21:58:44.065Z,1.48
2022-11-14T22:02:02.865Z,2.08
2022-11-14T22:04:41.462Z,2.08
2022-11-14T22:07:18.864Z,2.13
2022-11-14T22:12:57.604Z,2.10
2022-11-14T22:15:34.684Z,2.60
2022-11-14T22:18:14.351Z,1.60
2022-11-14T22:21:09.356Z,3.10
2022-11-14T22:23:47.912Z,2.08
2022-11-14T22:26:48.434Z,2.63
2022-11-14T22:29:21.077Z,1.75
2022-11-14T22:31:53.272Z,2.10
2022-11-14T22:34:22.022Z,2.20
2022-11-14T22:37:09.631Z,2.65
2022-11-14T22:39:39.039Z,3.20
2022-11-14T22:42:20.105Z,2.03
2022-11-14T22:44:57.451Z,2.10
2022-11-14T22:47:38.813Z,2.63
2022-11-14T22:50:14.075Z,1.63
2022-11-14T22:53:02.132Z,1.88
2022-11-14T22:58:25.514Z,1.85
2022-11-14T23:01:11.514Z,2.20
2022-11-14T23:06:41.755Z,1.42
2022-11-14T23:09:08.927Z,2.15
2022-11-14T23:11:36.421Z,2.65
2022-11-14T23:14:04.726Z,1.92
2022-11-14T23:16:34.908Z,2.47
2022-11-14T23:19:05.674Z,1.75
2022-11-14T23:21:47.590Z,1.45
2022-11-14T23:27:04.703Z,2.22
2022-11-14T23:29:33.454Z,2.05
2022-11-14T23:32:00.993Z,1.75
2022-11-14T23:34:28.527Z,2.05
2022-11-14T23:36:55.522Z,1.63
2022-11-14T23:40:01.491Z,3.07
2022-11-14T23:42:32.326Z,1.27
2022-11-14T23:45:09.088Z,2.05
2022-11-14T23:47:41.584Z,2.42
2022-11-14T23:50:33.817Z,1.95
2022-11-14T23:53:49.977Z,1.90
2022-11-14T23:59:07.640Z,2.03
